Time;durP1;ratioP1;P1;durP2;ratioP2;P2;SDS_P1;SDS_P2;PMS_P1;PMS_P2;Temp;Humidity;BMP_temperature;BMP_pressure;BME280_temperature;BME280_humidity;BME280_pressure;Samples;Min_cycle;Max_cycle;Signal;HPM_P1;HPM_P2
2023/03/24 00:00:16;;;;;;;11.80;5.22;;;;;;;11.40;100.00;99823.78;4897096;29;20115;-93
2023/03/24 00:02:47;;;;;;;14.47;6.60;;;;;;;11.40;100.00;99820.31;4909621;29;20518;-93
2023/03/24 00:05:19;;;;;;;10.57;5.40;;;;;;;11.40;100.00;99817.69;4911170;29;20076;-94
2023/03/24 00:07:45;;;;;;;13.15;5.43;;;;;;;11.41;100.00;99806.38;4901453;29;20028;-93
2023/03/24 00:10:16;;;;;;;13.68;6.63;;;;;;;11.41;100.00;99798.53;4898955;29;20504;-93
2023/03/24 00:12:48;;;;;;;10.88;5.07;;;;;;;11.45;100.00;99809.00;4910651;29;20435;-94
2023/03/24 00:15:22;;;;;;;8.85;4.22;;;;;;;11.48;100.00;99798.59;4899632;29;20167;-93
2023/03/24 00:17:52;;;;;;;11.48;5.28;;;;;;;11.51;100.00;99799.44;4898984;29;20486;-92
2023/03/24 00:20:28;;;;;;;9.15;4.55;;;;;;;11.52;100.00;99796.00;4898666;29;20048;-93
2023/03/24 00:22:57;;;;;;;9.30;5.05;;;;;;;11.55;100.00;99790.78;4898932;29;20031;-93
2023/03/24 00:25:35;;;;;;;9.95;4.88;;;;;;;11.57;100.00;99799.47;4911165;29;20435;-93
2023/03/24 00:28:01;;;;;;;11.90;4.90;;;;;;;11.58;100.00;99786.41;4899659;29;20036;-93
2023/03/24 00:30:36;;;;;;;8.82;4.68;;;;;;;11.62;100.00;99787.31;4910054;29;20028;-92
2023/03/24 00:33:02;;;;;;;7.97;4.90;;;;;;;11.64;100.00;99788.16;4899249;29;20371;-93
2023/03/24 00:35:30;;;;;;;7.57;4.47;;;;;;;11.67;100.00;99790.78;4897296;29;20039;-92
2023/03/24 00:38:02;;;;;;;8.30;4.43;;;;;;;11.70;100.00;99780.34;4899097;29;20047;-93
2023/03/24 00:40:30;;;;;;;9.38;4.80;;;;;;;11.75;100.00;99768.19;4896920;29;20688;-94
2023/03/24 00:42:58;;;;;;;8.23;4.55;;;;;;;11.79;100.00;99758.66;4909425;29;20087;-93
2023/03/24 00:45:23;;;;;;;8.25;4.45;;;;;;;11.84;100.00;99752.53;4899285;29;20121;-94
2023/03/24 00:47:57;;;;;;;9.63;4.43;;;;;;;11.85;100.00;99756.03;4907574;29;20116;-93
2023/03/24 00:50:27;;;;;;;8.32;4.47;;;;;;;11.88;100.00;99763.84;4908142;29;20024;-93
2023/03/24 00:52:53;;;;;;;7.38;3.80;;;;;;;11.89;100.00;99751.66;4907685;29;20490;-94
2023/03/24 00:55:20;;;;;;;6.40;3.90;;;;;;;11.92;100.00;99752.56;4895908;29;20032;-93
2023/03/24 00:57:49;;;;;;;9.18;4.07;;;;;;;11.92;100.00;99731.66;4896636;29;20032;-93
2023/03/24 01:00:19;;;;;;;8.35;4.43;;;;;;;11.96;100.00;99741.28;4897791;29;20047;-93
2023/03/24 01:02:52;;;;;;;8.30;3.90;;;;;;;11.98;100.00;99730.84;4897521;29;20067;-93
2023/03/24 01:05:22;;;;;;;9.13;3.88;;;;;;;12.00;100.00;99732.56;4897964;29;20446;-94
2023/03/24 01:07:55;;;;;;;8.35;4.00;;;;;;;11.98;100.00;99721.25;4897913;29;20031;-93
2023/03/24 01:10:25;;;;;;;6.90;3.90;;;;;;;11.98;100.00;99733.44;4897794;29;20040;-93
2023/03/24 01:12:54;;;;;;;9.52;3.90;;;;;;;11.97;100.00;99735.16;4889877;29;20024;-93
2023/03/24 01:15:22;;;;;;;8.50;4.45;;;;;;;11.99;100.00;99720.41;4910013;29;20123;-93
2023/03/24 01:17:47;;;;;;;6.63;3.75;;;;;;;12.00;100.00;99729.94;4909666;29;20036;-93
2023/03/24 01:20:14;;;;;;;8.20;3.70;;;;;;;11.99;100.00;99716.88;4897561;29;20031;-93
2023/03/24 01:22:44;;;;;;;10.18;4.05;;;;;;;11.96;100.00;99730.84;4897898;29;20059;-93
2023/03/24 01:25:14;;;;;;;8.90;3.97;;;;;;;11.95;100.00;99717.78;4908859;29;20116;-93
2023/03/24 01:27:40;;;;;;;8.52;4.18;;;;;;;11.92;100.00;99715.13;4897985;29;20035;-93
2023/03/24 01:30:06;;;;;;;10.70;4.28;;;;;;;11.89;100.00;99716.00;4898158;29;20047;-93
2023/03/24 01:32:34;;;;;;;9.95;4.22;;;;;;;11.87;100.00;99704.69;4914529;29;20504;-93
2023/03/24 01:34:59;;;;;;;8.63;4.18;;;;;;;11.83;100.00;99711.66;4913381;29;20122;-93
2023/03/24 01:37:27;;;;;;;9.88;4.10;;;;;;;11.84;100.00;99702.06;4901995;29;20656;-93
2023/03/24 01:39:53;;;;;;;8.05;3.80;;;;;;;11.81;100.00;99702.09;4903573;29;20031;-93
2023/03/24 01:42:24;;;;;;;9.13;4.35;;;;;;;11.78;100.00;99697.72;4913001;29;20383;-93
2023/03/24 01:44:53;;;;;;;8.85;4.45;;;;;;;11.82;100.00;99696.00;4900666;29;20032;-92
2023/03/24 01:47:24;;;;;;;8.18;4.22;;;;;;;11.80;100.00;99693.41;4899334;29;20035;-93
2023/03/24 01:49:53;;;;;;;9.48;4.03;;;;;;;11.78;100.00;99691.66;4901164;29;20095;-93
2023/03/24 01:52:45;;;;;;;;;;;;;;;11.82;100.00;99693.41;4913763;29;20119;-93
2023/03/24 01:55:19;;;;;;;8.10;4.25;;;;;;;11.77;100.00;99695.97;4908313;29;20324;-93
2023/03/24 01:57:55;;;;;;;9.98;4.70;;;;;;;11.79;100.00;99680.34;4901650;29;20063;-93
2023/03/24 02:00:20;;;;;;;9.45;4.70;;;;;;;11.74;100.00;99677.72;4897404;29;20028;-93
2023/03/24 02:03:00;;;;;;;11.43;4.85;;;;;;;11.76;100.00;99680.31;4901483;29;20083;-93
2023/03/24 02:05:34;;;;;;;9.25;4.63;;;;;;;11.75;100.00;99673.38;4900221;29;20085;-93
2023/03/24 02:08:29;;;;;;;8.75;4.78;;;;;;;11.74;100.00;99671.63;4901085;29;20028;-93
2023/03/24 02:10:56;;;;;;;10.27;4.68;;;;;;;11.71;100.00;99667.28;4917249;29;20024;-93
2023/03/24 02:13:22;;;;;;;9.18;4.75;;;;;;;11.70;100.00;99670.75;4901303;29;20032;-93
2023/03/24 02:16:20;;;;;;;10.05;4.88;;;;;;;11.71;100.00;99656.00;4899608;29;20058;-93
2023/03/24 02:19:25;;;;;;;10.90;5.60;;;;;;;11.72;100.00;99673.38;4900945;29;20032;-93
2023/03/24 02:22:00;;;;;;;10.77;5.60;;;;;;;11.70;100.00;99675.13;4900935;29;20028;-94
2023/03/24 02:25:16;;;;;;;10.20;4.80;;;;;;;11.72;100.00;99670.78;4898293;29;20050;-93
2023/03/24 02:27:42;;;;;;;12.32;5.07;;;;;;;11.69;100.00;99669.03;4901746;29;20036;-93
2023/03/24 02:30:32;;;;;;;10.43;5.45;;;;;;;11.69;100.00;99665.53;4901118;29;20043;-93
2023/03/24 02:33:21;;;;;;;12.93;5.28;;;;;;;11.71;100.00;99674.25;4910055;29;20043;-94
2023/03/24 02:36:17;;;;;;;10.77;5.55;;;;;;;11.71;100.00;99676.88;4899942;29;20032;-93
2023/03/24 02:39:09;;;;;;;9.63;5.18;;;;;;;11.70;100.00;99664.69;4909848;29;20075;-94
2023/03/24 02:41:52;;;;;;;8.95;5.45;;;;;;;11.72;100.00;99669.03;4901316;29;20565;-93
2023/03/24 02:44:24;;;;;;;11.88;5.70;;;;;;;11.73;100.00;99669.88;4909866;29;20028;-93
2023/03/24 02:47:01;;;;;;;12.90;5.63;;;;;;;11.73;100.00;99669.88;4900871;29;20032;-93
2023/03/24 02:49:43;;;;;;;10.75;5.53;;;;;;;11.73;100.00;99677.72;4912056;29;20039;-94
2023/03/24 02:52:24;;;;;;;13.68;6.10;;;;;;;11.72;100.00;99689.06;4912057;29;20028;-93
2023/03/24 02:55:01;;;;;;;11.32;5.68;;;;;;;11.72;100.00;99687.28;4900999;29;20035;-94
2023/03/24 02:57:41;;;;;;;13.65;5.88;;;;;;;11.74;100.00;99684.69;4901090;29;20402;-95
2023/03/24 03:00:27;;;;;;;13.55;5.72;;;;;;;11.74;100.00;99706.41;4897277;29;20036;-95
2023/03/24 03:03:10;;;;;;;11.18;5.85;;;;;;;11.77;100.00;99708.16;4902233;29;20067;-95
2023/03/24 03:05:47;;;;;;;14.88;6.00;;;;;;;11.76;100.00;99716.84;4915242;29;20032;-95
2023/03/24 03:08:17;;;;;;;11.18;6.50;;;;;;;11.77;100.00;99721.22;4913080;29;20063;-95
2023/03/24 03:10:51;;;;;;;10.93;5.85;;;;;;;11.77;100.00;99731.66;4899199;29;20056;-95
2023/03/24 03:13:38;;;;;;;10.85;6.35;;;;;;;11.77;100.00;99739.47;4911977;29;20513;-95
2023/03/24 03:16:11;;;;;;;10.35;5.70;;;;;;;11.73;100.00;99754.28;4916632;29;20040;-95
2023/03/24 03:18:50;;;;;;;10.27;6.00;;;;;;;11.69;100.00;99755.16;4910216;29;20036;-95
2023/03/24 03:21:25;;;;;;;11.38;6.00;;;;;;;11.64;100.00;99762.09;4901339;29;20071;-95
2023/03/24 03:24:04;;;;;;;11.02;5.57;;;;;;;11.61;100.00;99769.91;4900397;29;20490;-95
2023/03/24 03:26:31;;;;;;;10.98;4.80;;;;;;;11.52;98.54;99772.50;4912071;29;20035;-94
2023/03/24 03:29:00;;;;;;;8.38;3.92;;;;;;;11.41;95.27;99770.75;4910173;29;20028;-94
2023/03/24 03:31:33;;;;;;;10.48;3.97;;;;;;;11.32;96.07;99775.91;4910105;29;20043;-93
2023/03/24 03:34:23;;;;;;;8.40;3.42;;;;;;;11.22;96.76;99798.47;4910570;29;20023;-93
2023/03/24 03:37:03;;;;;;;8.30;3.50;;;;;;;11.12;95.78;99813.22;4899829;29;20035;-94
2023/03/24 03:39:36;;;;;;;7.97;2.65;;;;;;;11.02;94.89;99824.47;4898531;29;20083;-94
2023/03/24 03:42:03;;;;;;;7.38;2.80;;;;;;;10.94;93.70;99829.63;4899090;29;20028;-93
2023/03/24 03:44:33;;;;;;;9.27;2.42;;;;;;;10.86;93.83;99825.22;4910736;29;20087;-93
2023/03/24 03:46:59;;;;;;;9.45;2.35;;;;;;;10.75;93.59;99827.78;4910760;29;20095;-93
2023/03/24 03:49:24;;;;;;;7.78;2.10;;;;;;;10.68;93.69;99839.91;4899506;29;20040;-93
2023/03/24 03:52:01;;;;;;;;;;;;;;;;;;;;;
2023/03/24 03:54:33;;;;;;;7.15;2.60;;;;;;;10.58;94.09;99841.56;4909705;29;20414;-93
2023/03/24 03:57:02;;;;;;;8.65;2.42;;;;;;;10.56;94.13;99850.25;4911107;29;20042;-93
2023/03/24 03:59:34;;;;;;;13.73;5.25;;;;;;;10.54;93.15;99858.03;4898345;29;20099;-93
2023/03/24 04:02:25;;;;;;;16.73;5.93;;;;;;;10.47;92.54;99869.28;4900295;29;20052;-93
2023/03/24 04:05:09;;;;;;;15.40;6.13;;;;;;;10.37;91.20;99870.03;4900607;29;20122;-93
2023/03/24 04:08:02;;;;;;;15.90;5.35;;;;;;;10.29;91.54;99872.53;4898876;29;20032;-93
2023/03/24 04:10:56;;;;;;;17.90;6.22;;;;;;;10.21;91.78;99893.31;4900948;29;20095;-93
2023/03/24 04:13:39;;;;;;;15.05;4.88;;;;;;;10.13;91.37;99892.34;4909666;29;20076;-93
2023/03/24 04:16:23;;;;;;;11.27;4.03;;;;;;;10.06;90.92;99893.16;4897724;29;20036;-94
2023/03/24 04:19:14;;;;;;;12.15;3.95;;;;;;;10.01;90.97;99906.13;4899208;29;20036;-93
2023/03/24 04:22:03;;;;;;;13.30;3.33;;;;;;;9.96;91.19;99920.78;4909499;29;20039;-93
2023/03/24 04:24:48;;;;;;;8.85;3.13;;;;;;;9.96;91.97;99932.94;4910923;29;20071;-93
2023/03/24 04:27:45;;;;;;;10.68;3.38;;;;;;;9.95;92.38;99920.78;4900234;29;20095;-93
2023/03/24 04:30:44;;;;;;;10.63;3.45;;;;;;;9.90;92.97;99919.00;4910603;29;20036;-93
2023/03/24 04:33:21;;;;;;;11.90;3.03;;;;;;;9.87;92.65;99923.31;4897564;29;20494;-93
2023/03/24 04:35:52;;;;;;;11.40;3.25;;;;;;;9.83;92.65;99927.59;4898482;29;20110;-92
2023/03/24 04:38:24;;;;;;;8.98;2.60;;;;;;;9.81;92.71;99942.31;4908245;29;20051;-93
2023/03/24 04:40:54;;;;;;;11.77;3.08;;;;;;;9.78;91.92;99939.69;4897950;29;20028;-93
2023/03/24 04:43:23;;;;;;;10.05;2.33;;;;;;;9.74;91.87;99949.16;4898569;29;20027;-93
2023/03/24 04:45:49;;;;;;;;;;;;;;;9.78;92.72;99949.22;4895625;29;20498;-93
2023/03/24 04:48:18;;;;;;;11.70;2.60;;;;;;;9.69;92.48;99950.84;4896907;29;19915;-93
2023/03/24 04:50:53;;;;;;;9.70;2.60;;;;;;;9.65;92.39;99954.25;4898801;29;20127;-93
2023/03/24 04:53:19;;;;;;;6.85;2.70;;;;;;;9.63;92.44;99952.47;4897170;29;20032;-93
2023/03/24 04:56:18;;;;;;;9.95;3.05;;;;;;;9.62;92.75;99955.97;4899373;29;20024;-93
2023/03/24 04:58:46;;;;;;;10.50;3.13;;;;;;;9.57;92.59;99950.66;4909027;29;20032;-93
2023/03/24 05:01:20;;;;;;;9.40;3.75;;;;;;;9.56;92.60;99960.22;4898016;29;20498;-93
2023/03/24 05:03:48;;;;;;;10.32;3.88;;;;;;;9.53;91.97;99956.69;4917260;29;20039;-93
2023/03/24 05:06:25;;;;;;;15.18;4.13;;;;;;;9.52;91.84;99962.75;4899246;29;20175;-93
2023/03/24 05:09:01;;;;;;;18.15;4.30;;;;;;;9.50;92.20;99959.25;4922794;29;20036;-93
2023/03/24 05:11:29;;;;;;;11.77;4.43;;;;;;;9.47;91.61;99967.00;4906265;29;20582;-93
2023/03/24 05:13:55;;;;;;;17.55;4.63;;;;;;;9.46;91.78;99970.44;4923746;29;20027;-93
2023/03/24 05:16:20;;;;;;;14.10;4.90;;;;;;;9.44;91.43;99978.22;4906174;29;20043;-93
2023/03/24 05:18:52;;;;;;;17.15;4.80;;;;;;;9.44;91.83;99983.44;4907326;29;20046;-93
2023/03/24 05:21:21;;;;;;;15.23;5.35;;;;;;;9.43;92.11;99980.81;4903979;29;20047;-95
2023/03/24 05:23:49;;;;;;;13.82;4.78;;;;;;;9.41;91.81;99986.00;4924522;29;20482;-95
2023/03/24 05:26:15;;;;;;;12.02;4.82;;;;;;;9.39;92.40;99991.19;4906469;29;20076;-94
2023/03/24 05:28:40;;;;;;;16.08;4.82;;;;;;;9.39;92.51;99998.13;4924318;29;20379;-95
2023/03/24 05:31:05;;;;;;;13.57;4.15;;;;;;;9.38;92.86;100001.56;4923558;29;20391;-94
2023/03/24 05:33:31;;;;;;;12.63;4.55;;;;;;;9.38;92.65;100017.16;4907606;29;20549;-94
2023/03/24 05:36:02;;;;;;;12.52;3.88;;;;;;;9.36;92.92;100013.66;4904629;29;20031;-94
2023/03/24 05:38:28;;;;;;;10.88;3.33;;;;;;;9.34;93.12;100004.94;4924726;29;20042;-95
2023/03/24 05:41:00;;;;;;;10.23;3.60;;;;;;;9.34;93.04;100012.75;4905200;29;20717;-95
2023/03/24 05:43:26;;;;;;;13.55;3.30;;;;;;;9.33;92.99;100011.91;4907408;29;20028;-94
2023/03/24 05:45:59;;;;;;;14.02;3.38;;;;;;;9.33;92.80;100011.91;4907177;29;20036;-95
2023/03/24 05:48:24;;;;;;;10.35;3.28;;;;;;;9.34;92.38;100017.97;4920939;29;20055;-94
2023/03/24 05:50:53;;;;;;;16.20;3.00;;;;;;;9.37;92.58;100025.78;4906740;29;20135;-94
2023/03/24 05:53:19;;;;;;;10.70;3.20;;;;;;;9.38;92.60;100037.97;4922124;29;20031;-94
2023/03/24 05:55:53;;;;;;;13.57;3.45;;;;;;;9.35;92.17;100028.38;4915067;29;20059;-94
2023/03/24 05:58:20;;;;;;;13.20;3.38;;;;;;;9.37;92.59;100036.19;4903453;29;20028;-93
2023/03/24 06:00:46;;;;;;;12.93;3.30;;;;;;;9.37;91.98;100031.00;4907110;29;20012;-93
2023/03/24 06:03:12;;;;;;;12.65;3.40;;;;;;;9.37;92.04;100031.00;4923959;29;20425;-92
2023/03/24 06:05:41;;;;;;;12.13;3.60;;;;;;;9.36;91.30;100029.28;4924082;29;20035;-93
2023/03/24 06:08:18;;;;;;;11.18;2.97;;;;;;;9.36;91.50;100031.88;4905954;29;20062;-93
2023/03/24 06:10:52;;;;;;;16.05;3.08;;;;;;;9.35;91.25;100025.78;4907314;29;20027;-93
2023/03/24 06:13:20;;;;;;;12.77;3.13;;;;;;;9.37;91.35;100025.78;4904620;29;20632;-92
2023/03/24 06:15:46;;;;;;;13.18;2.60;;;;;;;9.38;90.72;100027.56;4922956;29;20118;-93
2023/03/24 06:18:14;;;;;;;11.25;2.53;;;;;;;9.39;90.39;100039.72;4902397;29;20126;-92
2023/03/24 06:20:40;;;;;;;13.63;3.00;;;;;;;9.38;90.45;100043.16;4903425;29;20035;-93
2023/03/24 06:23:05;;;;;;;10.02;2.53;;;;;;;9.38;90.75;100043.16;4903842;29;20367;-93
2023/03/24 06:25:32;;;;;;;10.15;2.22;;;;;;;9.40;90.73;100047.53;4903054;29;20032;-93
2023/03/24 06:28:04;;;;;;;10.32;2.53;;;;;;;9.38;90.86;100051.84;4920296;29;20059;-93
2023/03/24 06:30:32;;;;;;;15.30;2.90;;;;;;;9.42;90.68;100064.91;4920257;29;20123;-92
2023/03/24 06:32:58;;;;;;;11.00;2.53;;;;;;;9.44;91.34;100064.03;4901820;29;20024;-93
2023/03/24 06:35:23;;;;;;;11.55;2.17;;;;;;;9.44;90.20;100058.84;4901256;29;20028;-93
2023/03/24 06:37:48;;;;;;;13.10;2.60;;;;;;;9.45;90.57;100058.00;4901545;29;20375;-93
2023/03/24 06:40:16;;;;;;;9.25;2.13;;;;;;;9.46;90.35;100064.06;4918408;29;20466;-93
2023/03/24 06:42:41;;;;;;;12.00;2.40;;;;;;;9.44;90.45;100064.03;4902068;29;20026;-93
2023/03/24 06:45:08;;;;;;;13.70;2.47;;;;;;;9.45;90.39;100071.00;4899458;29;20031;-93
2023/03/24 06:47:33;;;;;;;10.35;2.50;;;;;;;9.48;90.69;100071.03;4900288;29;20035;-93
2023/03/24 06:50:02;;;;;;;14.93;2.85;;;;;;;9.52;90.25;100067.66;4901339;29;20402;-93
2023/03/24 06:52:40;;;;;;;13.40;2.70;;;;;;;9.58;90.29;100059.06;4917304;29;20106;-93
2023/03/24 06:55:08;;;;;;;14.65;2.72;;;;;;;9.61;89.88;100066.03;4901923;29;20068;-93
2023/03/24 06:57:36;;;;;;;14.82;3.38;;;;;;;9.65;90.29;100068.72;4910026;29;20035;-95
2023/03/24 07:00:02;;;;;;;17.17;3.60;;;;;;;9.67;90.15;100077.41;4902196;29;20119;-95
2023/03/24 07:02:33;;;;;;;15.80;3.10;;;;;;;9.71;90.31;100073.13;4851881;29;1251936;-94
2023/03/24 07:04:59;;;;;;;17.73;2.72;;;;;;;9.74;90.39;100073.16;4900352;29;20051;-94
2023/03/24 07:07:25;;;;;;;13.30;3.05;;;;;;;9.77;90.30;100075.81;4888959;29;20032;-95
2023/03/24 07:09:56;;;;;;;8.35;2.25;;;;;;;9.80;90.62;100065.44;4890038;29;20056;-94
2023/03/24 07:12:33;;;;;;;10.90;2.20;;;;;;;9.85;90.56;100076.81;4892181;29;20043;-95
2023/03/24 07:15:03;;;;;;;17.02;2.47;;;;;;;9.91;89.44;100071.69;4897837;29;20714;-94
2023/03/24 07:17:31;;;;;;;15.65;2.58;;;;;;;10.01;89.75;100074.41;4900777;29;20034;-94
2023/03/24 07:19:56;;;;;;;20.85;3.20;;;;;;;10.08;89.71;100084.06;4888569;29;20115;-95
2023/03/24 07:22:22;;;;;;;16.55;2.78;;;;;;;10.15;88.08;100096.28;4891205;29;20464;-94
2023/03/24 07:24:47;;;;;;;19.02;2.72;;;;;;;10.19;87.69;100098.06;4890315;29;20028;-94
2023/03/24 07:27:20;;;;;;;24.77;3.35;;;;;;;10.25;88.38;100102.47;4891145;29;20032;-94
2023/03/24 07:29:45;;;;;;;12.52;2.80;;;;;;;10.33;88.92;100094.78;4890346;29;20020;-94
2023/03/24 07:32:13;;;;;;;17.30;2.85;;;;;;;10.43;87.57;100094.06;4884804;29;20024;-94
2023/03/24 07:34:40;;;;;;;13.45;2.53;;;;;;;10.52;87.43;100101.97;4886464;29;20150;-93
2023/03/24 07:37:07;;;;;;;11.45;2.30;;;;;;;10.59;87.38;100111.63;4885012;29;20406;-94
2023/03/24 07:39:33;;;;;;;9.73;2.55;;;;;;;10.67;86.14;100113.44;4900803;29;20028;-93
2023/03/24 07:41:58;;;;;;;12.32;2.90;;;;;;;10.70;87.44;100111.75;4888439;29;20542;-94
2023/03/24 07:44:24;;;;;;;13.95;2.67;;;;;;;10.75;86.06;100115.28;4884740;29;20387;-94
2023/03/24 07:46:50;;;;;;;12.73;2.60;;;;;;;10.81;86.32;100114.47;4886505;29;20665;-94
2023/03/24 07:49:15;;;;;;;19.88;3.20;;;;;;;10.86;85.76;100118.00;4887823;29;20185;-93
2023/03/24 07:51:41;;;;;;;12.75;2.83;;;;;;;10.87;85.77;100117.13;4884293;29;20028;-93
2023/03/24 07:54:06;;;;;;;15.27;2.65;;;;;;;10.88;85.08;100131.06;4900532;29;20977;-94
2023/03/24 07:56:34;;;;;;;15.38;2.63;;;;;;;10.87;85.61;100135.38;4887231;29;20491;-93
2023/03/24 07:59:00;;;;;;;11.65;2.55;;;;;;;10.91;85.62;100120.66;4890120;29;20123;-94
2023/03/24 08:01:25;;;;;;;12.82;2.70;;;;;;;11.00;86.71;100135.53;4889840;29;20044;-94
2023/03/24 08:03:54;;;;;;;16.15;2.95;;;;;;;11.12;86.96;100136.53;4887959;29;20043;-93
2023/03/24 08:06:20;;;;;;;16.20;2.78;;;;;;;11.24;86.48;100130.53;4890194;29;20046;-93
2023/03/24 08:08:45;;;;;;;11.23;2.80;;;;;;;11.28;83.36;100140.16;4899955;29;20041;-93
2023/03/24 08:11:11;;;;;;;13.55;2.92;;;;;;;11.22;83.55;100137.47;4888754;29;20557;-93
2023/03/24 08:13:37;;;;;;;15.30;2.80;;;;;;;11.15;83.74;100140.88;4898652;29;20932;-93
2023/03/24 08:16:03;;;;;;;15.50;3.17;;;;;;;11.09;84.35;100138.22;4899976;29;20040;-93
2023/03/24 08:18:31;;;;;;;14.10;3.08;;;;;;;11.09;85.59;100152.13;4888291;29;20028;-93
2023/03/24 08:20:57;;;;;;;13.60;3.08;;;;;;;11.06;83.61;100151.22;4890978;29;21441;-93
2023/03/24 08:23:26;;;;;;;14.10;3.22;;;;;;;11.03;84.63;100157.25;4900427;29;20040;-93
2023/03/24 08:25:51;;;;;;;15.27;2.88;;;;;;;11.13;85.85;100159.09;4890975;29;20155;-93
2023/03/24 08:28:20;;;;;;;17.20;4.00;;;;;;;11.33;84.98;100150.63;4888599;29;20107;-93
2023/03/24 08:30:48;;;;;;;12.95;3.42;;;;;;;11.52;83.51;100164.69;4887240;29;20036;-92
2023/03/24 08:33:14;;;;;;;11.60;3.15;;;;;;;11.62;82.02;100161.31;4888138;29;20087;-93
2023/03/24 08:35:40;;;;;;;11.90;2.97;;;;;;;11.62;81.10;100163.03;4888795;29;20039;-94
2023/03/24 08:38:10;;;;;;;11.40;2.75;;;;;;;11.69;82.17;100166.56;4888709;29;20028;-92
2023/03/24 08:40:38;;;;;;;13.38;3.25;;;;;;;11.68;80.45;100165.69;4897715;29;20025;-93
2023/03/24 08:43:11;;;;;;;15.55;3.55;;;;;;;11.64;80.77;100167.44;4896610;29;20044;-91
2023/03/24 08:45:40;;;;;;;13.98;3.67;;;;;;;11.65;81.34;100165.69;4887613;29;20083;-91
2023/03/24 08:48:06;;;;;;;14.57;3.13;;;;;;;11.69;81.78;100184.81;4887023;29;20029;-92
2023/03/24 08:50:38;;;;;;;9.85;2.50;;;;;;;11.68;79.51;100180.50;4896987;29;20063;-91
2023/03/24 08:53:03;;;;;;;14.23;3.15;;;;;;;11.58;78.93;100164.75;4887931;29;20147;-93
2023/03/24 08:55:32;;;;;;;13.20;3.10;;;;;;;11.55;80.49;100180.38;4895860;29;20036;-91
2023/03/24 08:57:57;;;;;;;18.92;3.95;;;;;;;11.54;82.00;100178.63;4896294;29;20031;-92
2023/03/24 09:00:24;;;;;;;13.45;3.35;;;;;;;11.56;80.98;100178.66;4898097;29;20876;-91
2023/03/24 09:02:52;;;;;;;12.30;3.22;;;;;;;11.56;81.08;100174.31;4906164;29;20040;-91
2023/03/24 09:05:19;;;;;;;13.35;3.15;;;;;;;11.52;81.17;100190.78;4897396;29;20036;-91
2023/03/24 09:07:46;;;;;;;12.07;2.78;;;;;;;11.46;81.90;100188.13;4898925;29;20498;-91
2023/03/24 09:10:12;;;;;;;10.98;3.20;;;;;;;11.39;81.55;100191.53;4910141;29;20036;-92
2023/03/24 09:12:38;;;;;;;15.15;3.60;;;;;;;11.35;81.19;100181.94;4898580;29;20188;-92
2023/03/24 09:15:05;;;;;;;16.77;3.92;;;;;;;11.31;80.44;100192.34;4896522;29;20773;-91
2023/03/24 09:17:35;;;;;;;14.30;3.45;;;;;;;11.34;80.76;100188.00;4903589;29;20039;-92
2023/03/24 09:20:10;;;;;;;14.65;3.50;;;;;;;11.55;81.14;100182.97;4894110;29;20038;-91
2023/03/24 09:22:46;;;;;;;14.43;3.58;;;;;;;11.77;80.53;100188.38;4897232;29;20046;-91
2023/03/24 09:25:15;;;;;;;11.27;3.25;;;;;;;11.87;79.58;100190.19;4898022;29;20023;-91
2023/03/24 09:27:41;;;;;;;16.10;3.28;;;;;;;11.86;80.20;100198.91;4892505;29;20032;-92
2023/03/24 09:30:09;;;;;;;10.88;2.72;;;;;;;11.83;79.01;100198.88;4890602;29;20111;-91
2023/03/24 09:32:35;;;;;;;14.50;2.92;;;;;;;11.75;80.38;100218.84;4907605;29;20036;-92
2023/03/24 09:35:04;;;;;;;14.93;3.25;;;;;;;11.64;83.02;100217.00;4890921;29;20055;-92
2023/03/24 09:37:32;;;;;;;11.52;3.20;;;;;;;11.48;83.23;100221.22;4907780;29;20028;-91
2023/03/24 09:40:00;;;;;;;12.02;3.30;;;;;;;11.28;83.80;100215.78;4906554;29;20036;-91
2023/03/24 09:42:37;;;;;;;14.82;3.85;;;;;;;11.23;85.07;100211.38;4907316;29;20060;-91
2023/03/24 09:45:13;;;;;;;14.77;3.92;;;;;;;11.28;83.80;100218.38;4907049;29;20082;-92
2023/03/24 09:47:45;;;;;;;13.15;3.67;;;;;;;11.29;84.93;100217.50;4903466;29;20545;-91
2023/03/24 09:50:21;;;;;;;12.18;3.90;;;;;;;11.33;82.92;100217.56;4894725;29;20032;-91
2023/03/24 09:52:50;;;;;;;10.00;3.50;;;;;;;11.39;84.09;100215.88;4898629;29;20554;-92
2023/03/24 09:55:21;;;;;;;14.60;3.35;;;;;;;11.43;82.86;100220.28;4912963;29;20520;-92
2023/03/24 09:57:49;;;;;;;10.90;3.40;;;;;;;11.40;83.02;100216.78;4913482;29;20520;-92
2023/03/24 10:00:14;;;;;;;14.77;3.83;;;;;;;11.39;83.01;100228.06;4902575;29;20542;-92
2023/03/24 10:02:40;;;;;;;12.65;3.50;;;;;;;11.40;82.65;100229.81;4919532;29;20047;-92
2023/03/24 10:05:16;;;;;;;14.15;3.50;;;;;;;11.42;81.89;100213.28;4902633;29;20034;-92
2023/03/24 10:08:11;;;;;;;13.95;4.00;;;;;;;11.46;82.69;100224.66;4900956;29;20032;-92
2023/03/24 10:10:55;;;;;;;15.32;3.88;;;;;;;11.51;83.56;100216.88;4903717;29;20027;-92
2023/03/24 10:13:52;;;;;;;10.85;3.38;;;;;;;11.60;83.61;100223.06;4921904;29;20035;-92
2023/03/24 10:16:32;;;;;;;13.68;3.70;;;;;;;11.65;81.31;100231.78;4890947;29;20051;-92
2023/03/24 10:19:20;;;;;;;11.25;3.40;;;;;;;11.71;81.50;100230.97;4904181;29;20027;-91
2023/03/24 10:22:40;;;;;;;11.18;2.75;;;;;;;11.76;80.32;100229.28;4920681;29;20027;-92
2023/03/24 10:25:18;;;;;;;9.35;2.85;;;;;;;11.78;79.42;100235.38;4894491;29;20055;-91
2023/03/24 10:28:01;;;;;;;12.43;3.00;;;;;;;11.78;79.30;100237.13;4903718;29;20031;-92
2023/03/24 10:30:38;;;;;;;12.85;3.13;;;;;;;11.77;78.56;100225.78;4903834;29;20060;-92
2023/03/24 10:33:03;;;;;;;12.65;3.50;;;;;;;11.78;78.96;100230.16;4919953;29;20079;-92
2023/03/24 10:35:42;;;;;;;12.52;3.50;;;;;;;11.81;78.38;100226.72;4902878;29;20059;-92
2023/03/24 10:38:14;;;;;;;;;;;;;;;11.89;78.55;100230.25;4904259;29;20139;-92
2023/03/24 10:40:40;;;;;;;12.00;2.60;;;;;;;11.96;76.33;100216.44;4921149;29;19962;-92
2023/03/24 10:43:05;;;;;;;9.55;3.20;;;;;;;12.18;77.07;100213.97;4904260;29;20034;-92
2023/03/24 10:45:32;;;;;;;12.93;2.92;;;;;;;12.31;75.13;100222.75;4902747;29;20020;-92
2023/03/24 10:48:00;;;;;;;12.95;2.92;;;;;;;12.32;74.47;100224.50;4902723;29;20410;-92
2023/03/24 10:50:28;;;;;;;13.00;3.15;;;;;;;12.32;73.01;100219.28;4903733;29;20118;-92
2023/03/24 10:52:54;;;;;;;9.05;2.78;;;;;;;12.33;75.26;100216.66;4903746;29;20107;-92
2023/03/24 10:55:22;;;;;;;9.45;2.35;;;;;;;12.38;73.79;100221.91;4903464;29;20031;-92
2023/03/24 10:57:58;;;;;;;11.65;2.80;;;;;;;12.42;75.17;100215.84;4904180;29;20380;-92
2023/03/24 11:00:36;;;;;;;10.40;3.25;;;;;;;12.42;74.36;100215.00;4903782;29;20268;-92
2023/03/24 11:03:11;;;;;;;12.15;3.40;;;;;;;12.45;75.14;100222.84;4912964;29;20134;-92
2023/03/24 11:05:38;;;;;;;10.65;2.80;;;;;;;12.57;73.21;100225.53;4908870;29;20028;-92
2023/03/24 11:08:16;;;;;;;14.82;3.35;;;;;;;12.80;75.43;100225.66;4912379;29;20035;-92
2023/03/24 11:10:42;;;;;;;10.45;2.92;;;;;;;12.98;72.49;100226.59;4901285;29;20044;-92
2023/03/24 11:13:25;;;;;;;10.00;3.10;;;;;;;13.05;71.39;100224.00;4901318;29;20039;-92
2023/03/24 11:16:03;;;;;;;12.38;3.13;;;;;;;12.93;71.72;100220.47;4900990;29;20042;-92
2023/03/24 11:18:29;;;;;;;9.57;3.00;;;;;;;12.95;74.55;100222.22;4911628;29;20031;-92
2023/03/24 11:21:02;;;;;;;13.25;2.90;;;;;;;12.98;72.77;100221.34;4901859;29;20024;-92
2023/03/24 11:23:31;;;;;;;10.02;3.10;;;;;;;12.99;73.05;100226.59;4911376;29;20058;-92
2023/03/24 11:26:20;;;;;;;15.65;3.35;;;;;;;13.01;74.52;100217.00;4900059;29;20451;-92
2023/03/24 11:28:53;;;;;;;10.35;2.85;;;;;;;13.08;70.54;100217.00;4917163;29;20024;-91
2023/03/24 11:31:31;;;;;;;10.60;2.72;;;;;;;13.09;71.28;100213.53;4909147;29;20115;-91
2023/03/24 11:34:00;;;;;;;9.90;2.90;;;;;;;13.13;71.27;100216.16;4911098;29;20042;-92
2023/03/24 11:36:41;;;;;;;10.18;2.80;;;;;;;13.16;71.46;100212.69;4911553;29;20491;-91
2023/03/24 11:39:11;;;;;;;10.48;2.35;;;;;;;13.13;71.38;100216.16;4890518;29;20043;-92
2023/03/24 11:41:44;;;;;;;12.55;3.60;;;;;;;13.03;70.07;100224.84;4909442;29;20055;-93
2023/03/24 11:44:18;;;;;;;12.88;2.88;;;;;;;12.86;70.65;100220.44;4911565;29;20103;-95
2023/03/24 11:46:51;;;;;;;9.07;2.58;;;;;;;12.73;69.93;100222.97;4897358;29;20032;-93